Time;durP1;ratioP1;P1;durP2;ratioP2;P2;SDS_P1;SDS_P2;PMS_P1;PMS_P2;Temp;Humidity;BMP_temperature;BMP_pressure;BME280_temperature;BME280_humidity;BME280_pressure;Samples;Min_cycle;Max_cycle;Signal;HPM_P1;HPM_P2
2022/03/11 00:01:10;;;;;;;3.53;2.90;;;;;;;;;;2078505;28;20029;-68
2022/03/11 00:02:29;;;;;;;6.50;2.83;;;;;;;;;;2074606;28;20030;-66
2022/03/11 00:03:48;;;;;;;5.68;3.08;;;;;;;;;;2075874;28;20064;-65
2022/03/11 00:05:07;;;;;;;6.82;3.15;;;;;;;;;;2075195;28;20029;-66
2022/03/11 00:06:26;;;;;;;7.35;2.88;;;;;;;;;;2079258;28;20535;-66
2022/03/11 00:07:45;;;;;;;5.57;3.50;;;;;;;;;;2077417;28;20037;-66
2022/03/11 00:09:04;;;;;;;3.22;2.70;;;;;;;;;;2078768;28;20041;-66
2022/03/11 00:10:23;;;;;;;6.80;3.08;;;;;;;;;;2078041;28;20026;-65
2022/03/11 00:11:42;;;;;;;4.43;3.05;;;;;;;;;;2077669;28;20405;-66
2022/03/11 00:13:01;;;;;;;4.22;3.00;;;;;;;;;;2080058;28;20543;-66
2022/03/11 00:14:20;;;;;;;5.05;2.78;;;;;;;;;;2078349;28;20492;-67
2022/03/11 00:15:39;;;;;;;5.53;3.05;;;;;;;;;;2078136;28;20034;-66
2022/03/11 00:16:57;;;;;;;4.65;2.75;;;;;;;;;;2079802;28;20033;-66
2022/03/11 00:18:17;;;;;;;4.30;2.53;;;;;;;;;;2078995;28;20037;-67
2022/03/11 00:19:36;;;;;;;5.40;3.10;;;;;;;;;;2078203;28;20566;-67
2022/03/11 00:20:55;;;;;;;8.55;2.90;;;;;;;;;;2078506;28;20498;-66
2022/03/11 00:22:14;;;;;;;3.35;2.63;;;;;;;;;;2078578;28;20029;-67
2022/03/11 00:23:33;;;;;;;7.35;3.10;;;;;;;;;;2078478;28;20104;-67
2022/03/11 00:24:52;;;;;;;4.63;3.17;;;;;;;;;;2080127;28;20045;-65
2022/03/11 00:26:11;;;;;;;6.07;2.92;;;;;;;;;;2078801;28;20017;-66
2022/03/11 00:27:30;;;;;;;5.80;3.25;;;;;;;;;;2080279;28;20120;-66
2022/03/11 00:28:49;;;;;;;9.27;3.35;;;;;;;;;;2078196;28;20033;-66
2022/03/11 00:30:09;;;;;;;3.92;2.33;;;;;;;;;;2078279;28;20037;-66
2022/03/11 00:31:28;;;;;;;9.05;2.90;;;;;;;;;;2078995;28;20435;-67
2022/03/11 00:32:48;;;;;;;7.20;3.42;;;;;;;;;;2079053;28;20507;-66
2022/03/11 00:34:07;;;;;;;4.93;2.70;;;;;;;;;;2078553;28;20038;-66
2022/03/11 00:35:25;;;;;;;5.55;2.83;;;;;;;;;;2079833;28;20511;-66
2022/03/11 00:36:44;;;;;;;4.68;2.80;;;;;;;;;;2078905;28;20025;-66
2022/03/11 00:38:03;;;;;;;4.93;3.10;;;;;;;;;;2078364;28;20034;-68
2022/03/11 00:39:22;;;;;;;4.28;2.58;;;;;;;;;;2077987;28;20037;-66
2022/03/11 00:40:41;;;;;;;5.97;3.03;;;;;;;;;;2080305;28;20026;-66
2022/03/11 00:42:00;;;;;;;9.02;2.92;;;;;;;;;;2080411;28;20034;-66
2022/03/11 00:43:19;;;;;;;8.60;3.10;;;;;;;;;;2078975;28;20030;-66
2022/03/11 00:44:39;;;;;;;4.95;3.05;;;;;;;;;;2077350;28;20068;-66
2022/03/11 00:45:59;;;;;;;3.55;3.08;;;;;;;;;;2075135;28;20029;-66
2022/03/11 00:47:17;;;;;;;3.60;2.75;;;;;;;;;;2080323;28;20021;-66
2022/03/11 00:48:36;;;;;;;5.65;2.75;;;;;;;;;;2079250;28;20047;-66
2022/03/11 00:49:55;;;;;;;4.55;3.10;;;;;;;;;;2078594;28;20033;-66
2022/03/11 00:51:14;;;;;;;3.17;2.88;;;;;;;;;;2079437;28;20120;-66
2022/03/11 00:52:33;;;;;;;3.63;3.05;;;;;;;;;;2076782;28;20121;-68
2022/03/11 00:53:51;;;;;;;4.57;2.92;;;;;;;;;;2079046;28;20034;-68
2022/03/11 00:55:11;;;;;;;7.38;3.45;;;;;;;;;;2080526;28;20464;-65
2022/03/11 00:56:30;;;;;;;7.60;3.85;;;;;;;;;;2078780;28;20029;-66
2022/03/11 00:57:50;;;;;;;3.67;3.03;;;;;;;;;;2078589;28;20022;-66
2022/03/11 00:59:09;;;;;;;6.90;3.03;;;;;;;;;;2077688;28;20391;-65
2022/03/11 01:00:28;;;;;;;3.97;3.03;;;;;;;;;;2079932;28;20484;-67
2022/03/11 01:01:47;;;;;;;3.15;2.85;;;;;;;;;;2078401;28;20037;-65
2022/03/11 01:03:06;;;;;;;4.22;2.72;;;;;;;;;;2078198;28;20025;-66
2022/03/11 01:04:25;;;;;;;4.10;2.90;;;;;;;;;;2075973;28;20037;-68
2022/03/11 01:05:44;;;;;;;3.22;2.72;;;;;;;;;;2077777;28;20022;-66
2022/03/11 01:07:03;;;;;;;3.65;2.50;;;;;;;;;;2079340;28;20408;-64
2022/03/11 01:08:21;;;;;;;3.88;2.88;;;;;;;;;;2078779;28;20026;-68
2022/03/11 01:09:40;;;;;;;5.03;3.30;;;;;;;;;;2077201;28;20500;-67
2022/03/11 01:11:00;;;;;;;4.40;2.53;;;;;;;;;;2081195;28;20520;-68
2022/03/11 01:12:19;;;;;;;4.05;2.97;;;;;;;;;;2078800;28;20029;-68
2022/03/11 01:13:38;;;;;;;3.75;2.60;;;;;;;;;;2081706;28;20395;-65
2022/03/11 01:14:57;;;;;;;4.15;2.47;;;;;;;;;;2079437;28;20041;-65
2022/03/11 01:16:16;;;;;;;5.82;3.17;;;;;;;;;;2080806;28;20116;-67
2022/03/11 01:17:35;;;;;;;3.85;2.97;;;;;;;;;;2081699;28;20033;-66
2022/03/11 01:18:53;;;;;;;5.03;3.13;;;;;;;;;;2079413;28;20022;-65
2022/03/11 01:20:12;;;;;;;6.40;2.78;;;;;;;;;;2079419;28;20124;-65
2022/03/11 01:21:31;;;;;;;3.47;3.17;;;;;;;;;;2080466;28;20033;-65
2022/03/11 01:22:50;;;;;;;3.00;2.80;;;;;;;;;;2079675;28;20029;-65
2022/03/11 01:24:09;;;;;;;6.18;2.50;;;;;;;;;;2081305;28;20041;-65
2022/03/11 01:25:28;;;;;;;5.53;3.10;;;;;;;;;;2080687;28;20037;-66
2022/03/11 01:26:47;;;;;;;3.22;2.50;;;;;;;;;;2079915;28;20034;-65
2022/03/11 01:28:06;;;;;;;4.47;3.08;;;;;;;;;;2078777;28;20488;-66
2022/03/11 01:29:25;;;;;;;4.75;3.42;;;;;;;;;;2075620;28;20046;-66
2022/03/11 01:30:44;;;;;;;4.55;2.75;;;;;;;;;;2074765;28;20046;-65
2022/03/11 01:32:03;;;;;;;4.05;2.50;;;;;;;;;;2076565;28;20434;-66
2022/03/11 01:33:22;;;;;;;5.80;3.10;;;;;;;;;;2081151;28;20033;-66
2022/03/11 01:34:41;;;;;;;3.67;2.80;;;;;;;;;;2074150;28;20037;-66
2022/03/11 01:36:00;;;;;;;6.25;3.10;;;;;;;;;;2080611;28;20116;-66
2022/03/11 01:37:19;;;;;;;4.22;2.65;;;;;;;;;;2080034;28;20045;-67
2022/03/11 01:38:38;;;;;;;4.05;2.65;;;;;;;;;;2078830;28;20025;-66
2022/03/11 01:39:57;;;;;;;5.63;3.22;;;;;;;;;;2080200;28;20037;-68
2022/03/11 01:41:16;;;;;;;6.47;2.72;;;;;;;;;;2081229;28;20493;-67
2022/03/11 01:42:36;;;;;;;3.72;2.63;;;;;;;;;;2078525;28;20029;-66
2022/03/11 01:43:59;;;;;;;3.08;2.30;;;;;;;;;;2081524;28;20411;-65
2022/03/11 01:45:18;;;;;;;;;;;;;;;;;;2079857;28;20037;-67
2022/03/11 01:46:38;;;;;;;5.60;3.42;;;;;;;;;;2081234;28;19984;-67
2022/03/11 01:47:57;;;;;;;8.32;3.00;;;;;;;;;;2080368;28;20029;-66
2022/03/11 01:49:16;;;;;;;4.78;3.00;;;;;;;;;;2079936;28;20509;-66
2022/03/11 01:50:35;;;;;;;4.75;2.47;;;;;;;;;;2076049;28;20067;-65
2022/03/11 01:51:54;;;;;;;5.25;3.00;;;;;;;;;;2080901;28;20447;-66
2022/03/11 01:53:13;;;;;;;3.28;2.70;;;;;;;;;;2080384;28;20033;-66
2022/03/11 01:54:32;;;;;;;5.78;2.85;;;;;;;;;;2080391;28;20035;-67
2022/03/11 01:55:51;;;;;;;11.63;3.83;;;;;;;;;;2079839;28;20392;-66
2022/03/11 01:57:12;;;;;;;3.17;2.88;;;;;;;;;;2080294;28;20065;-66
2022/03/11 01:58:31;;;;;;;3.80;3.10;;;;;;;;;;2080401;28;20057;-65
2022/03/11 01:59:50;;;;;;;5.05;3.13;;;;;;;;;;2080786;28;20434;-67
2022/03/11 02:01:09;;;;;;;3.38;2.92;;;;;;;;;;2080932;28;20026;-68
2022/03/11 02:02:28;;;;;;;4.68;3.15;;;;;;;;;;2078980;28;20029;-65
2022/03/11 02:03:47;;;;;;;4.95;3.05;;;;;;;;;;2080781;28;20037;-64
2022/03/11 02:05:06;;;;;;;3.75;2.90;;;;;;;;;;2081110;28;20101;-67
2022/03/11 02:06:26;;;;;;;3.42;2.58;;;;;;;;;;2081839;28;20045;-68
2022/03/11 02:07:47;;;;;;;5.20;2.83;;;;;;;;;;2080672;28;20017;-68
2022/03/11 02:09:06;;;;;;;2.80;2.60;;;;;;;;;;2078614;28;20026;-68
2022/03/11 02:10:25;;;;;;;4.25;3.08;;;;;;;;;;2080653;28;20061;-67
2022/03/11 02:11:47;;;;;;;4.50;2.67;;;;;;;;;;2081294;28;20037;-65
2022/03/11 02:13:07;;;;;;;4.37;2.67;;;;;;;;;;2080529;28;20675;-68
2022/03/11 02:14:26;;;;;;;3.38;2.55;;;;;;;;;;2080726;28;20693;-67
2022/03/11 02:15:46;;;;;;;4.70;2.60;;;;;;;;;;2080933;28;20041;-68
2022/03/11 02:17:05;;;;;;;5.07;2.78;;;;;;;;;;2081127;28;20041;-67
2022/03/11 02:18:23;;;;;;;7.28;2.85;;;;;;;;;;2080188;28;20399;-67
2022/03/11 02:19:43;;;;;;;4.57;2.88;;;;;;;;;;2080669;28;20033;-67
2022/03/11 02:21:02;;;;;;;6.18;2.92;;;;;;;;;;2080310;28;20037;-67
2022/03/11 02:22:22;;;;;;;3.70;2.70;;;;;;;;;;2080791;28;20038;-68
2022/03/11 02:23:45;;;;;;;6.05;3.13;;;;;;;;;;2081058;28;20026;-67
2022/03/11 02:25:08;;;;;;;4.22;3.20;;;;;;;;;;2079790;28;20017;-67
2022/03/11 02:26:28;;;;;;;3.38;2.85;;;;;;;;;;2078205;28;20510;-67
2022/03/11 02:27:47;;;;;;;4.43;2.70;;;;;;;;;;2078741;28;20034;-65
2022/03/11 02:29:06;;;;;;;3.78;3.38;;;;;;;;;;2080705;28;20030;-68
2022/03/11 02:30:25;;;;;;;3.22;2.70;;;;;;;;;;2078775;28;20041;-66
2022/03/11 02:31:44;;;;;;;2.90;2.60;;;;;;;;;;2081146;28;20049;-64
2022/03/11 02:33:03;;;;;;;4.47;2.92;;;;;;;;;;2080780;28;20037;-66
2022/03/11 02:34:22;;;;;;;3.17;2.53;;;;;;;;;;2081397;28;20033;-66
2022/03/11 02:35:41;;;;;;;4.72;2.78;;;;;;;;;;2080052;28;20037;-66
2022/03/11 02:37:00;;;;;;;6.18;3.03;;;;;;;;;;2080784;28;20034;-67
2022/03/11 02:38:19;;;;;;;4.13;3.45;;;;;;;;;;2080902;28;20037;-66
2022/03/11 02:39:38;;;;;;;4.38;2.78;;;;;;;;;;2081019;28;20108;-67
2022/03/11 02:40:57;;;;;;;3.45;2.90;;;;;;;;;;2080074;28;20082;-66
2022/03/11 02:42:16;;;;;;;6.60;2.88;;;;;;;;;;2077826;28;20033;-65
2022/03/11 02:43:36;;;;;;;4.50;2.70;;;;;;;;;;2075697;28;20458;-66
2022/03/11 02:44:58;;;;;;;3.85;2.38;;;;;;;;;;2078557;28;20030;-67
2022/03/11 02:46:16;;;;;;;4.45;2.70;;;;;;;;;;2075688;28;20038;-66
2022/03/11 02:47:35;;;;;;;3.75;2.92;;;;;;;;;;2078849;28;20030;-67
2022/03/11 02:48:54;;;;;;;4.22;3.33;;;;;;;;;;2080512;28;20483;-67
2022/03/11 02:50:13;;;;;;;4.50;2.88;;;;;;;;;;2080944;28;20025;-67
2022/03/11 02:51:32;;;;;;;4.07;2.72;;;;;;;;;;2079635;28;20037;-67
2022/03/11 02:52:51;;;;;;;5.65;3.40;;;;;;;;;;2078780;28;20104;-66
2022/03/11 02:54:10;;;;;;;6.05;3.08;;;;;;;;;;2080881;28;20037;-66
2022/03/11 02:55:29;;;;;;;4.85;2.75;;;;;;;;;;2081153;28;20033;-66
2022/03/11 02:56:48;;;;;;;3.30;2.97;;;;;;;;;;2079966;28;20037;-66
2022/03/11 02:58:06;;;;;;;8.00;3.40;;;;;;;;;;2080138;28;20565;-68
2022/03/11 02:59:25;;;;;;;7.03;3.25;;;;;;;;;;2080698;28;20041;-68
2022/03/11 03:00:44;;;;;;;3.40;3.10;;;;;;;;;;2073781;28;21131;-68
2022/03/11 03:02:03;;;;;;;4.60;2.55;;;;;;;;;;2077376;28;20034;-68
2022/03/11 03:03:22;;;;;;;5.70;3.33;;;;;;;;;;2079863;28;20029;-68
2022/03/11 03:04:41;;;;;;;3.20;2.47;;;;;;;;;;2080755;28;20034;-65
2022/03/11 03:06:00;;;;;;;3.25;2.92;;;;;;;;;;2080730;28;20017;-67
2022/03/11 03:07:19;;;;;;;4.05;3.10;;;;;;;;;;2079728;28;20037;-66
2022/03/11 03:08:38;;;;;;;17.20;3.30;;;;;;;;;;2080599;28;20034;-66
2022/03/11 03:09:58;;;;;;;5.88;3.20;;;;;;;;;;2080471;28;20034;-66
2022/03/11 03:11:17;;;;;;;4.80;3.60;;;;;;;;;;2079059;28;20025;-64
2022/03/11 03:12:36;;;;;;;3.42;2.90;;;;;;;;;;2076719;28;20025;-66
2022/03/11 03:13:55;;;;;;;4.97;3.28;;;;;;;;;;2079608;28;20025;-66
2022/03/11 03:15:13;;;;;;;8.18;3.40;;;;;;;;;;2079841;28;20029;-65
2022/03/11 03:16:32;;;;;;;3.38;2.70;;;;;;;;;;2080322;28;20392;-66
2022/03/11 03:17:51;;;;;;;4.63;2.85;;;;;;;;;;2078533;28;20021;-65
2022/03/11 03:19:10;;;;;;;3.08;2.78;;;;;;;;;;2080176;28;20026;-67
2022/03/11 03:20:29;;;;;;;4.10;2.88;;;;;;;;;;2080119;28;20025;-66
2022/03/11 03:21:48;;;;;;;3.03;2.72;;;;;;;;;;2077406;28;20029;-65
2022/03/11 03:23:07;;;;;;;4.30;3.08;;;;;;;;;;2078506;28;20112;-67
2022/03/11 03:24:26;;;;;;;4.90;3.17;;;;;;;;;;2080364;28;20034;-68
2022/03/11 03:25:45;;;;;;;3.22;2.95;;;;;;;;;;2080520;28;20038;-67
2022/03/11 03:27:04;;;;;;;5.20;3.20;;;;;;;;;;2078137;28;20500;-67
2022/03/11 03:28:23;;;;;;;6.30;3.05;;;;;;;;;;2079812;28;20041;-68
2022/03/11 03:29:42;;;;;;;4.43;3.00;;;;;;;;;;2072537;28;20034;-67
2022/03/11 03:31:01;;;;;;;3.92;3.17;;;;;;;;;;2077308;28;20139;-67
2022/03/11 03:32:20;;;;;;;8.40;3.55;;;;;;;;;;2078757;28;20041;-68
2022/03/11 03:33:39;;;;;;;4.25;3.50;;;;;;;;;;2080144;28;20104;-67
2022/03/11 03:34:58;;;;;;;6.78;3.22;;;;;;;;;;2077936;28;20045;-67
2022/03/11 03:36:17;;;;;;;4.55;3.17;;;;;;;;;;2080448;28;20033;-66
2022/03/11 03:37:36;;;;;;;3.70;3.20;;;;;;;;;;2079325;28;20049;-67
2022/03/11 03:38:55;;;;;;;5.63;3.30;;;;;;;;;;2079951;28;20520;-67
2022/03/11 03:40:14;;;;;;;4.47;3.28;;;;;;;;;;2076911;28;20037;-67
2022/03/11 03:41:32;;;;;;;4.20;3.08;;;;;;;;;;2080552;28;20033;-66
2022/03/11 03:42:51;;;;;;;3.58;3.20;;;;;;;;;;2079486;28;20033;-66
2022/03/11 03:44:10;;;;;;;5.25;3.33;;;;;;;;;;2078956;28;20395;-66
2022/03/11 03:45:31;;;;;;;6.32;3.67;;;;;;;;;;2079528;28;20112;-67
2022/03/11 03:46:50;;;;;;;4.18;3.03;;;;;;;;;;2079853;28;20026;-66
2022/03/11 03:48:09;;;;;;;4.15;3.30;;;;;;;;;;2080244;28;20076;-66
2022/03/11 03:49:28;;;;;;;4.15;3.75;;;;;;;;;;2080755;28;20033;-66
2022/03/11 03:50:47;;;;;;;3.47;3.08;;;;;;;;;;2080536;28;20034;-65
2022/03/11 03:52:11;;;;;;;7.97;3.42;;;;;;;;;;2078475;28;20033;-67
2022/03/11 03:53:30;;;;;;;7.18;3.15;;;;;;;;;;2079071;28;20396;-67
2022/03/11 03:54:49;;;;;;;6.47;2.90;;;;;;;;;;2081057;28;20033;-67
2022/03/11 03:56:08;;;;;;;6.82;3.30;;;;;;;;;;2079815;28;20033;-67
2022/03/11 03:57:27;;;;;;;4.93;3.10;;;;;;;;;;2078634;28;20037;-67
2022/03/11 03:58:45;;;;;;;3.85;3.17;;;;;;;;;;2080590;28;20025;-69
2022/03/11 04:00:05;;;;;;;5.40;3.15;;;;;;;;;;2080711;28;20065;-67
2022/03/11 04:01:24;;;;;;;4.97;3.33;;;;;;;;;;2079344;28;20422;-67
2022/03/11 04:02:47;;;;;;;5.97;3.33;;;;;;;;;;2076837;28;20427;-67
2022/03/11 04:04:07;;;;;;;3.10;2.65;;;;;;;;;;2079367;28;20057;-67
2022/03/11 04:05:26;;;;;;;5.63;3.30;;;;;;;;;;2080345;28;20037;-67
2022/03/11 04:06:45;;;;;;;5.50;3.33;;;;;;;;;;2079333;28;20104;-66
2022/03/11 04:08:04;;;;;;;4.00;3.60;;;;;;;;;;2078672;28;20148;-66
2022/03/11 04:09:23;;;;;;;4.70;3.15;;;;;;;;;;2080746;28;20060;-67
2022/03/11 04:10:42;;;;;;;5.95;3.65;;;;;;;;;;2079651;28;20399;-67
2022/03/11 04:12:01;;;;;;;7.28;3.47;;;;;;;;;;2079304;28;20558;-66
2022/03/11 04:13:20;;;;;;;4.10;3.33;;;;;;;;;;2079247;28;20030;-66
2022/03/11 04:14:39;;;;;;;7.40;3.25;;;;;;;;;;2078876;28;20033;-66
2022/03/11 04:15:58;;;;;;;6.53;3.80;;;;;;;;;;2079902;28;20029;-67
2022/03/11 04:17:17;;;;;;;6.35;3.67;;;;;;;;;;2073623;28;20029;-67
2022/03/11 04:18:36;;;;;;;4.28;3.35;;;;;;;;;;2077300;28;20317;-67
2022/03/11 04:19:55;;;;;;;4.93;3.35;;;;;;;;;;2079299;28;20046;-67
2022/03/11 04:21:15;;;;;;;5.15;3.92;;;;;;;;;;2079971;28;20407;-67
2022/03/11 04:22:39;;;;;;;5.50;3.85;;;;;;;;;;2077813;28;20033;-66
2022/03/11 04:23:58;;;;;;;4.97;3.78;;;;;;;;;;2079669;28;20026;-67
2022/03/11 04:25:16;;;;;;;5.82;3.58;;;;;;;;;;2078773;28;20034;-67
2022/03/11 04:26:35;;;;;;;3.15;2.78;;;;;;;;;;2080500;28;20056;-65
2022/03/11 04:27:54;;;;;;;6.90;4.05;;;;;;;;;;2077950;28;20025;-67
2022/03/11 04:29:13;;;;;;;6.85;3.45;;;;;;;;;;2079504;28;20029;-67
2022/03/11 04:30:32;;;;;;;5.43;3.75;;;;;;;;;;2079368;28;20042;-66
2022/03/11 04:31:51;;;;;;;6.95;3.22;;;;;;;;;;2078391;28;20068;-66
2022/03/11 04:33:10;;;;;;;6.07;3.35;;;;;;;;;;2079639;28;20022;-66
2022/03/11 04:34:29;;;;;;;5.57;3.55;;;;;;;;;;2080222;28;20108;-66
2022/03/11 04:35:47;;;;;;;5.30;3.55;;;;;;;;;;2080724;28;20037;-67
2022/03/11 04:37:07;;;;;;;7.80;3.83;;;;;;;;;;2079582;28;20033;-66
2022/03/11 04:38:26;;;;;;;4.63;3.30;;;;;;;;;;2078342;28;20037;-66
2022/03/11 04:39:44;;;;;;;5.22;3.55;;;;;;;;;;2080613;28;20037;-66
2022/03/11 04:41:04;;;;;;;3.90;3.47;;;;;;;;;;2080066;28;20037;-66
2022/03/11 04:42:23;;;;;;;6.13;3.97;;;;;;;;;;2074526;28;20041;-65
2022/03/11 04:43:42;;;;;;;5.03;3.70;;;;;;;;;;2079986;28;20487;-65
2022/03/11 04:45:02;;;;;;;6.60;4.18;;;;;;;;;;2082452;28;20018;-66
2022/03/11 04:46:21;;;;;;;4.78;3.22;;;;;;;;;;2081507;28;20033;-65
2022/03/11 04:47:40;;;;;;;4.03;3.47;;;;;;;;;;2082026;28;20029;-66
2022/03/11 04:48:59;;;;;;;6.32;3.85;;;;;;;;;;2078994;28;20483;-67
2022/03/11 04:50:18;;;;;;;5.50;4.28;;;;;;;;;;2081689;28;20064;-68
2022/03/11 04:51:38;;;;;;;4.72;4.15;;;;;;;;;;2080150;28;20030;-67
2022/03/11 04:52:57;;;;;;;4.68;3.70;;;;;;;;;;2078783;28;20030;-68
2022/03/11 04:54:15;;;;;;;4.47;3.83;;;;;;;;;;2082560;28;20084;-66
2022/03/11 04:55:34;;;;;;;5.65;4.03;;;;;;;;;;2080655;28;20034;-67
2022/03/11 04:56:53;;;;;;;4.32;3.50;;;;;;;;;;2082292;28;20030;-66
2022/03/11 04:58:12;;;;;;;5.53;3.92;;;;;;;;;;2080918;28;20026;-66
2022/03/11 04:59:31;;;;;;;5.55;4.00;;;;;;;;;;2082270;28;20033;-66
2022/03/11 05:00:50;;;;;;;6.55;4.50;;;;;;;;;;2074053;28;20105;-66
2022/03/11 05:02:09;;;;;;;6.93;3.65;;;;;;;;;;2078649;28;20033;-67
2022/03/11 05:03:28;;;;;;;4.90;3.67;;;;;;;;;;2082183;28;20112;-66
2022/03/11 05:04:47;;;;;;;4.40;4.00;;;;;;;;;;2082080;28;20057;-66
2022/03/11 05:06:06;;;;;;;6.10;3.83;;;;;;;;;;2079227;28;20025;-66
2022/03/11 05:07:25;;;;;;;7.65;4.70;;;;;;;;;;2079126;28;20037;-66
2022/03/11 05:08:44;;;;;;;8.07;4.05;;;;;;;;;;2082102;28;20041;-66
2022/03/11 05:10:04;;;;;;;4.68;4.05;;;;;;;;;;2075969;28;20140;-66
2022/03/11 05:11:23;;;;;;;5.75;4.05;;;;;;;;;;2078761;28;20029;-66
2022/03/11 05:12:42;;;;;;;5.25;4.05;;;;;;;;;;2078837;28;20021;-66
2022/03/11 05:14:01;;;;;;;6.32;3.97;;;;;;;;;;2080276;28;20033;-66
2022/03/11 05:15:21;;;;;;;6.97;4.28;;;;;;;;;;2080481;28;20038;-66
2022/03/11 05:16:40;;;;;;;5.32;3.50;;;;;;;;;;2079496;28;20052;-67
2022/03/11 05:17:59;;;;;;;7.32;4.30;;;;;;;;;;2074208;28;20025;-66
2022/03/11 05:19:18;;;;;;;4.40;3.97;;;;;;;;;;2077880;28;20111;-66
2022/03/11 05:20:38;;;;;;;5.47;4.13;;;;;;;;;;2081452;28;20033;-66
2022/03/11 05:21:57;;;;;;;4.43;3.67;;;;;;;;;;2075942;28;20121;-67
2022/03/11 05:23:16;;;;;;;4.70;4.00;;;;;;;;;;2081325;28;20033;-66
2022/03/11 05:24:35;;;;;;;7.60;4.00;;;;;;;;;;2079635;28;20037;-66
2022/03/11 05:25:54;;;;;;;5.28;4.13;;;;;;;;;;2079368;28;20025;-66
2022/03/11 05:27:13;;;;;;;5.13;4.25;;;;;;;;;;2080491;28;20021;-67
2022/03/11 05:28:32;;;;;;;5.20;4.03;;;;;;;;;;2079185;28;20041;-66
2022/03/11 05:29:51;;;;;;;8.00;4.25;;;;;;;;;;2080672;28;20033;-66
2022/03/11 05:31:10;;;;;;;5.13;3.83;;;;;;;;;;2079878;28;20026;-68
2022/03/11 05:32:29;;;;;;;5.60;4.40;;;;;;;;;;2079533;28;20108;-66
2022/03/11 05:33:48;;;;;;;5.55;3.85;;;;;;;;;;2074953;28;20041;-66
2022/03/11 05:35:08;;;;;;;7.03;4.40;;;;;;;;;;2080043;28;20492;-67
2022/03/11 05:36:26;;;;;;;8.25;4.45;;;;;;;;;;2080915;28;20045;-66
2022/03/11 05:37:46;;;;;;;7.13;4.90;;;;;;;;;;2078073;28;20029;-67
2022/03/11 05:39:05;;;;;;;5.38;4.53;;;;;;;;;;2079493;28;20025;-65
2022/03/11 05:40:24;;;;;;;8.77;4.75;;;;;;;;;;2080759;28;20033;-68
2022/03/11 05:41:44;;;;;;;8.68;4.60;;;;;;;;;;2081435;28;20033;-67
2022/03/11 05:43:03;;;;;;;5.82;4.28;;;;;;;;;;2076307;28;20090;-67
2022/03/11 05:44:23;;;;;;;6.63;4.22;;;;;;;;;;2079967;28;20056;-67
2022/03/11 05:45:42;;;;;;;4.95;3.83;;;;;;;;;;2079196;28;20697;-67
2022/03/11 05:47:01;;;;;;;4.75;4.28;;;;;;;;;;2080480;28;20025;-66
2022/03/11 05:48:20;;;;;;;6.57;4.85;;;;;;;;;;2078741;28;20022;-68
2022/03/11 05:49:39;;;;;;;11.65;4.80;;;;;;;;;;2079898;28;20033;-66
2022/03/11 05:50:58;;;;;;;6.60;4.65;;;;;;;;;;2076219;28;20431;-66
2022/03/11 05:52:17;;;;;;;7.43;4.60;;;;;;;;;;2075110;28;20037;-65
2022/03/11 05:53:36;;;;;;;6.57;4.95;;;;;;;;;;2078268;28;20065;-67
2022/03/11 05:54:55;;;;;;;8.35;4.57;;;;;;;;;;2077664;28;20076;-65
2022/03/11 05:56:14;;;;;;;7.90;4.35;;;;;;;;;;2078975;28;20060;-66
2022/03/11 05:57:34;;;;;;;7.53;4.22;;;;;;;;;;2079940;28;20034;-65
2022/03/11 05:58:53;;;;;;;10.05;5.20;;;;;;;;;;2081055;28;20026;-65
2022/03/11 06:00:12;;;;;;;11.68;4.93;;;;;;;;;;2079381;28;20061;-66
2022/03/11 06:01:31;;;;;;;8.10;4.55;;;;;;;;;;2077941;28;20045;-66
2022/03/11 06:02:50;;;;;;;6.60;4.68;;;;;;;;;;2079826;28;20018;-66
2022/03/11 06:04:09;;;;;;;5.85;4.38;;;;;;;;;;2077805;28;20017;-66
2022/03/11 06:05:28;;;;;;;4.82;4.38;;;;;;;;;;2078975;28;20490;-66
2022/03/11 06:06:47;;;;;;;8.82;5.32;;;;;;;;;;2079787;28;20026;-66
2022/03/11 06:08:06;;;;;;;5.25;4.15;;;;;;;;;;2076624;28;20018;-65
2022/03/11 06:09:25;;;;;;;5.93;4.97;;;;;;;;;;2076892;28;20037;-66
2022/03/11 06:10:46;;;;;;;8.82;4.90;;;;;;;;;;2074335;28;20489;-67
2022/03/11 06:12:05;;;;;;;7.45;5.10;;;;;;;;;;2076120;28;20041;-66
2022/03/11 06:13:23;;;;;;;7.32;4.50;;;;;;;;;;2079841;28;20104;-68
2022/03/11 06:14:42;;;;;;;8.10;5.10;;;;;;;;;;2075161;28;20601;-67
2022/03/11 06:16:02;;;;;;;6.50;4.70;;;;;;;;;;2080553;28;20061;-67
2022/03/11 06:17:21;;;;;;;8.15;5.00;;;;;;;;;;2079886;28;20033;-64
2022/03/11 06:18:40;;;;;;;8.93;4.70;;;;;;;;;;2077108;28;20396;-64
2022/03/11 06:19:59;;;;;;;7.68;5.00;;;;;;;;;;2073760;28;20037;-68
2022/03/11 06:21:18;;;;;;;5.28;3.92;;;;;;;;;;2077106;28;20033;-66
2022/03/11 06:22:45;;;;;;;7.53;4.10;;;;;;;;;;2075859;28;20033;-66
2022/03/11 06:24:04;;;;;;;11.13;5.00;;;;;;;;;;2068387;28;20034;-66
2022/03/11 06:25:22;;;;;;;10.43;4.88;;;;;;;;;;2075804;28;20108;-66
2022/03/11 06:26:41;;;;;;;7.13;4.60;;;;;;;;;;2071519;28;20033;-66
2022/03/11 06:28:00;;;;;;;9.88;5.00;;;;;;;;;;2076429;28;20026;-66
2022/03/11 06:29:19;;;;;;;8.85;5.22;;;;;;;;;;2079372;28;20030;-66
2022/03/11 06:30:39;;;;;;;6.35;4.28;;;;;;;;;;2078938;28;20408;-66
2022/03/11 06:31:58;;;;;;;8.73;4.63;;;;;;;;;;2077475;28;20387;-66
2022/03/11 06:33:20;;;;;;;7.05;4.70;;;;;;;;;;2080333;28;20033;-66
2022/03/11 06:34:39;;;;;;;7.78;4.88;;;;;;;;;;2078412;28;20495;-66
2022/03/11 06:35:58;;;;;;;6.85;4.90;;;;;;;;;;2079987;28;20072;-66
2022/03/11 06:37:17;;;;;;;7.28;4.20;;;;;;;;;;2080354;28;20044;-66
2022/03/11 06:38:36;;;;;;;8.05;5.05;;;;;;;;;;2077081;28;20101;-65
2022/03/11 06:39:56;;;;;;;7.00;4.20;;;;;;;;;;2077062;28;20030;-66
2022/03/11 06:41:16;;;;;;;10.52;5.50;;;;;;;;;;2078531;28;20435;-65
2022/03/11 06:42:36;;;;;;;7.38;5.20;;;;;;;;;;2079483;28;20045;-66
2022/03/11 06:43:55;;;;;;;8.18;4.70;;;;;;;;;;2078034;28;20428;-67
2022/03/11 06:45:15;;;;;;;9.63;5.20;;;;;;;;;;2078249;28;20682;-64
2022/03/11 06:46:34;;;;;;;6.47;5.07;;;;;;;;;;2077636;28;20033;-67
2022/03/11 06:47:53;;;;;;;10.38;5.57;;;;;;;;;;2079873;28;20073;-65
2022/03/11 06:49:12;;;;;;;5.72;4.70;;;;;;;;;;2080026;28;20017;-65
2022/03/11 06:50:31;;;;;;;7.53;4.97;;;;;;;;;;2079786;28;20034;-66
2022/03/11 06:51:50;;;;;;;7.78;5.13;;;;;;;;;;2078226;28;20026;-65
2022/03/11 06:53:08;;;;;;;6.85;4.90;;;;;;;;;;2077840;28;20059;-66
2022/03/11 06:54:27;;;;;;;6.28;5.07;;;;;;;;;;2079640;28;20079;-66
2022/03/11 06:55:46;;;;;;;5.82;4.80;;;;;;;;;;2077345;28;20049;-65
2022/03/11 06:57:05;;;;;;;8.65;4.90;;;;;;;;;;2079516;28;20037;-65
2022/03/11 06:58:24;;;;;;;7.30;4.72;;;;;;;;;;2078418;28;20042;-66
2022/03/11 06:59:43;;;;;;;11.45;5.20;;;;;;;;;;2078445;28;20034;-65
2022/03/11 07:01:03;;;;;;;8.05;4.55;;;;;;;;;;2078985;28;20037;-65
2022/03/11 07:02:22;;;;;;;7.47;5.20;;;;;;;;;;2078405;28;20041;-66
2022/03/11 07:03:41;;;;;;;6.60;5.10;;;;;;;;;;2080369;28;20116;-64
2022/03/11 07:05:00;;;;;;;6.05;4.55;;;;;;;;;;2078418;28;20497;-66
2022/03/11 07:06:19;;;;;;;6.15;4.60;;;;;;;;;;2077978;28;20485;-66
2022/03/11 07:07:38;;;;;;;6.13;4.53;;;;;;;;;;2079187;28;20021;-65
2022/03/11 07:08:57;;;;;;;7.40;4.88;;;;;;;;;;2079743;28;20116;-66
2022/03/11 07:10:16;;;;;;;7.38;5.28;;;;;;;;;;2080251;28;20030;-64
2022/03/11 07:11:35;;;;;;;6.63;5.13;;;;;;;;;;2080192;28;20488;-65
2022/03/11 07:12:55;;;;;;;6.20;4.80;;;;;;;;;;2079561;28;20037;-64
2022/03/11 07:14:14;;;;;;;6.60;4.90;;;;;;;;;;2079289;28;20535;-66
2022/03/11 07:15:33;;;;;;;8.98;4.95;;;;;;;;;;2078110;28;20057;-66
2022/03/11 07:16:56;;;;;;;11.70;5.22;;;;;;;;;;2080137;28;20038;-65
2022/03/11 07:18:14;;;;;;;6.95;5.45;;;;;;;;;;2080267;28;20116;-66
2022/03/11 07:19:34;;;;;;;6.95;4.88;;;;;;;;;;2078410;28;20025;-65
2022/03/11 07:20:53;;;;;;;6.90;5.25;;;;;;;;;;2073899;28;20393;-65
2022/03/11 07:22:12;;;;;;;5.63;4.70;;;;;;;;;;2076996;28;20038;-65
2022/03/11 07:23:31;;;;;;;7.30;5.07;;;;;;;;;;2075185;28;20021;-65
2022/03/11 07:24:50;;;;;;;6.25;5.00;;;;;;;;;;2077715;28;20061;-65
2022/03/11 07:26:09;;;;;;;7.90;5.18;;;;;;;;;;2076440;28;20030;-65
2022/03/11 07:27:28;;;;;;;7.07;4.65;;;;;;;;;;2076221;28;20104;-64
2022/03/11 07:28:47;;;;;;;10.52;4.75;;;;;;;;;;2075255;28;20030;-64
2022/03/11 07:30:06;;;;;;;8.95;4.75;;;;;;;;;;2072477;28;20046;-64
2022/03/11 07:31:25;;;;;;;10.30;5.13;;;;;;;;;;2078880;28;20065;-65
2022/03/11 07:32:46;;;;;;;7.53;4.72;;;;;;;;;;2078573;28;20034;-64
2022/03/11 07:34:05;;;;;;;7.25;5.25;;;;;;;;;;2077000;28;20022;-65
2022/03/11 07:35:23;;;;;;;6.68;5.13;;;;;;;;;;2070896;28;20236;-65
2022/03/11 07:36:43;;;;;;;10.00;5.15;;;;;;;;;;2077230;28;20034;-64
2022/03/11 07:38:01;;;;;;;12.77;5.70;;;;;;;;;;2078136;28;20029;-64
2022/03/11 07:39:20;;;;;;;9.30;4.82;;;;;;;;;;2077221;28;20025;-64
2022/03/11 07:40:39;;;;;;;7.72;4.80;;;;;;;;;;2077687;28;20033;-65
2022/03/11 07:41:58;;;;;;;8.00;5.55;;;;;;;;;;2073171;28;20062;-65
2022/03/11 07:43:17;;;;;;;9.65;5.50;;;;;;;;;;2077145;28;20029;-65
2022/03/11 07:44:36;;;;;;;9.00;4.85;;;;;;;;;;2078818;28;20026;-65
2022/03/11 07:45:55;;;;;;;7.57;4.90;;;;;;;;;;2076309;28;20026;-65
2022/03/11 07:47:14;;;;;;;9.48;4.82;;;;;;;;;;2079069;28;20026;-65
2022/03/11 07:48:33;;;;;;;7.10;5.03;;;;;;;;;;2076945;28;20033;-64
2022/03/11 07:49:52;;;;;;;12.82;5.75;;;;;;;;;;2078598;28;20017;-64
2022/03/11 07:51:11;;;;;;;7.97;4.75;;;;;;;;;;2077765;28;20057;-65
2022/03/11 07:52:29;;;;;;;8.90;5.15;;;;;;;;;;2076867;28;20030;-65
2022/03/11 07:53:48;;;;;;;10.23;5.28;;;;;;;;;;2077824;28;20025;-65
2022/03/11 07:55:08;;;;;;;8.07;6.10;;;;;;;;;;2077087;28;20025;-65